createdAt,value
2019-06-10T00:01:04.209Z,74.10
2019-06-10T00:03:31.776Z,74.40
2019-06-10T00:06:00.856Z,74.60
2019-06-10T00:08:27.323Z,73.90
2019-06-10T00:10:54.251Z,74.30
2019-06-10T00:13:22.319Z,74.30
2019-06-10T00:19:02.804Z,74.80
2019-06-10T00:21:30.656Z,75.60
2019-06-10T00:23:57.478Z,74.90
2019-06-10T00:26:25.652Z,74.80
2019-06-10T00:28:52.907Z,74.40
2019-06-10T00:31:20.727Z,74.60
2019-06-10T00:33:48.007Z,74.80
2019-06-10T00:36:15.655Z,74.80
2019-06-10T00:38:42.627Z,75.40
2019-06-10T00:41:13.883Z,75.50
2019-06-10T00:43:41.078Z,75.40
2019-06-10T00:46:13.730Z,75.60
2019-06-10T00:48:41.095Z,75.90
2019-06-10T00:51:08.864Z,75.60
2019-06-10T00:53:36.008Z,75.70
2019-06-10T00:56:05.112Z,75.90
2019-06-10T00:58:31.964Z,75.90
2019-06-10T01:01:01.118Z,76.80
2019-06-10T01:03:28.117Z,76.90
2019-06-10T01:05:55.067Z,76.90
2019-06-10T01:08:22.019Z,76.70
2019-06-10T01:14:12.577Z,77.30
2019-06-10T01:16:41.138Z,78.50
2019-06-10T01:19:08.172Z,77.40
2019-06-10T01:21:35.015Z,77.50
2019-06-10T01:24:02.001Z,77.40
2019-06-10T01:26:30.878Z,77.50
2019-06-10T01:28:57.682Z,77.60
2019-06-10T01:31:24.928Z,77.60
2019-06-10T01:33:51.820Z,78.00
2019-06-10T01:36:32.087Z,78.10
2019-06-10T01:39:01.396Z,79.00
2019-06-10T01:41:27.855Z,78.20
2019-06-10T01:43:54.864Z,78.00
2019-06-10T01:46:21.843Z,77.90
2019-06-10T01:48:51.831Z,77.60
2019-06-10T01:51:17.919Z,77.10
2019-06-10T01:53:46.321Z,77.20
2019-06-10T01:56:15.436Z,79.10
2019-06-10T01:58:42.093Z,77.50
2019-06-10T02:01:13.441Z,77.60
2019-06-10T02:03:41.490Z,77.50
2019-06-10T02:06:08.823Z,77.30
2019-06-10T02:08:36.031Z,77.50
2019-06-10T02:11:04.247Z,77.80
2019-06-10T02:13:51.553Z,77.70
2019-06-10T02:19:16.017Z,77.10
2019-06-10T02:21:43.657Z,77.70
2019-06-10T02:24:23.642Z,77.70
2019-06-10T02:26:51.619Z,78.30
2019-06-10T02:29:21.724Z,78.40
2019-06-10T02:31:47.410Z,78.10
2019-06-10T02:34:18.405Z,78.40
2019-06-10T02:36:44.532Z,78.70
2019-06-10T02:39:16.798Z,78.80
2019-06-10T02:41:44.219Z,78.60
2019-06-10T02:46:57.985Z,78.80
2019-06-10T02:49:46.984Z,78.40
2019-06-10T02:51:53.836Z,78.20
2019-06-10T02:54:28.163Z,78.20
2019-06-10T02:56:53.772Z,78.40
2019-06-10T02:59:21.735Z,78.80
2019-06-10T03:01:48.045Z,78.50
2019-06-10T03:04:16.352Z,78.10
2019-06-10T03:06:44.926Z,78.10
2019-06-10T03:09:14.126Z,78.80
2019-06-10T03:11:44.862Z,78.40
2019-06-10T03:14:12.990Z,78.60
2019-06-10T03:16:42.299Z,78.50
2019-06-10T03:19:09.016Z,76.90
2019-06-10T03:21:35.847Z,76.10
2019-06-10T03:24:03.021Z,76.90
2019-06-10T03:26:32.266Z,78.10
2019-06-10T03:28:59.007Z,76.80
2019-06-10T03:31:33.995Z,76.70
2019-06-10T03:33:54.755Z,77.40
2019-06-10T03:36:23.146Z,77.30
2019-06-10T03:38:50.423Z,78.20
2019-06-10T03:41:18.356Z,76.30
2019-06-10T03:43:45.540Z,76.80
2019-06-10T03:46:13.685Z,76.70
2019-06-10T03:48:43.205Z,76.50
2019-06-10T03:51:09.568Z,75.60
2019-06-10T03:53:36.515Z,74.90
2019-06-10T03:56:03.353Z,74.70
2019-06-10T03:58:32.673Z,73.20
2019-06-10T04:00:59.351Z,72.90
2019-06-10T04:03:28.081Z,73.20
2019-06-10T04:05:55.671Z,71.40
2019-06-10T04:08:23.948Z,72.40
2019-06-10T04:10:52.177Z,72.10
2019-06-10T04:13:19.546Z,71.40
2019-06-10T04:15:46.749Z,71.60
2019-06-10T04:18:13.728Z,71.50
2019-06-10T04:20:42.842Z,70.80
2019-06-10T04:23:09.351Z,69.60
2019-06-10T04:25:39.802Z,68.70
2019-06-10T04:28:06.764Z,69.40
2019-06-10T04:30:33.706Z,68.60
2019-06-10T04:33:02.294Z,68.90
2019-06-10T04:35:29.395Z,66.90
2019-06-10T04:37:56.359Z,66.30
2019-06-10T04:40:24.496Z,65.80
2019-06-10T04:42:52.531Z,63.80
2019-06-10T04:45:21.194Z,64.20
2019-06-10T04:47:48.289Z,64.10
2019-06-10T04:50:25.077Z,63.80
2019-06-10T04:52:43.885Z,63.60
2019-06-10T04:55:12.633Z,63.70
2019-06-10T04:57:42.910Z,64.80
2019-06-10T05:00:14.429Z,63.50
2019-06-10T05:02:42.881Z,61.90
2019-06-10T05:05:09.704Z,60.90
2019-06-10T05:07:37.103Z,60.10
2019-06-10T05:10:05.591Z,62.40
2019-06-10T05:12:32.854Z,59.60
2019-06-10T05:14:59.725Z,59.60
2019-06-10T05:17:29.185Z,60.70
2019-06-10T05:19:55.329Z,60.30
2019-06-10T05:22:23.734Z,58.60
2019-06-10T05:24:52.742Z,52.20
2019-06-10T05:27:22.415Z,51.40
2019-06-10T05:29:48.538Z,51.50
2019-06-10T05:32:15.538Z,52.20
2019-06-10T05:34:43.725Z,54.20
2019-06-10T05:37:12.089Z,49.80
2019-06-10T05:39:39.322Z,50.70
2019-06-10T05:42:06.148Z,47.30
2019-06-10T05:44:34.541Z,47.30
2019-06-10T05:47:03.671Z,47.10
2019-06-10T05:49:31.219Z,48.40
2019-06-10T05:51:59.211Z,48.40
2019-06-10T05:54:26.407Z,51.20
2019-06-10T05:56:54.503Z,48.30
2019-06-10T05:59:23.068Z,49.50
2019-06-10T06:01:53.660Z,48.10
2019-06-10T06:04:18.975Z,47.50
2019-06-10T06:06:45.919Z,48.20
2019-06-10T06:09:14.007Z,48.40
2019-06-10T06:11:43.096Z,48.50
2019-06-10T06:14:09.749Z,47.40
2019-06-10T06:16:38.142Z,48.70
2019-06-10T06:19:05.357Z,47.40
2019-06-10T06:21:40.308Z,46.30
2019-06-10T06:24:03.868Z,45.30
2019-06-10T06:26:36.530Z,45.00
2019-06-10T06:29:02.119Z,45.80
2019-06-10T06:31:28.617Z,45.90
2019-06-10T06:33:56.655Z,44.00
2019-06-10T06:36:23.634Z,43.40
2019-06-10T06:38:52.875Z,43.90
2019-06-10T06:41:19.353Z,42.80
2019-06-10T06:43:46.299Z,42.00
2019-06-10T06:46:15.094Z,45.50
2019-06-10T06:48:43.897Z,44.00
2019-06-10T06:51:12.999Z,45.50
2019-06-10T06:53:48.360Z,41.10
2019-06-10T06:56:08.400Z,41.20
2019-06-10T06:58:36.911Z,41.30
2019-06-10T07:01:10.052Z,41.80
2019-06-10T07:03:35.223Z,39.30
2019-06-10T07:06:02.727Z,41.10
2019-06-10T07:08:33.280Z,44.10
2019-06-10T07:11:02.849Z,41.30
2019-06-10T07:13:35.433Z,42.50
2019-06-10T07:16:02.938Z,41.70
2019-06-10T07:18:32.417Z,40.40
2019-06-10T07:20:58.583Z,39.60
2019-06-10T07:23:25.539Z,40.60
2019-06-10T07:25:53.227Z,38.60
2019-06-10T07:28:22.899Z,39.30
2019-06-10T07:30:52.835Z,38.60
2019-06-10T07:33:18.156Z,37.60
2019-06-10T07:35:45.480Z,39.30
2019-06-10T07:38:12.551Z,37.20
2019-06-10T07:40:39.379Z,38.60
2019-06-10T07:43:06.227Z,39.70
2019-06-10T07:45:33.861Z,39.10
2019-06-10T07:48:02.831Z,39.20
2019-06-10T07:50:29.891Z,38.70
2019-06-10T07:52:56.840Z,34.30
2019-06-10T07:55:23.672Z,36.70
2019-06-10T07:57:52.913Z,34.70
2019-06-10T08:00:19.913Z,38.60
2019-06-10T08:02:46.871Z,38.90
2019-06-10T08:05:13.931Z,35.20
2019-06-10T08:07:43.594Z,36.90
2019-06-10T08:10:09.935Z,37.60
2019-06-10T08:12:37.158Z,37.00
2019-06-10T08:15:05.426Z,34.00
2019-06-10T08:17:32.817Z,37.30
2019-06-10T08:20:02.300Z,32.70
2019-06-10T08:22:33.608Z,29.70
2019-06-10T08:24:57.437Z,29.80
2019-06-10T08:27:24.408Z,32.40
2019-06-10T08:30:13.161Z,32.00
2019-06-10T08:32:20.049Z,31.90
2019-06-10T08:34:48.085Z,26.80
2019-06-10T08:37:15.187Z,23.60
2019-06-10T08:39:43.087Z,26.20
2019-06-10T08:42:12.446Z,25.00
2019-06-10T08:44:41.352Z,27.50
2019-06-10T08:47:08.097Z,22.20
2019-06-10T08:49:35.075Z,23.70
2019-06-10T08:52:02.717Z,22.10
2019-06-10T08:54:32.262Z,23.50
2019-06-10T08:56:58.588Z,25.50
2019-06-10T08:59:25.536Z,23.60
2019-06-10T09:01:56.674Z,24.10
2019-06-10T09:04:22.805Z,26.80
2019-06-10T09:06:53.206Z,24.40
2019-06-10T09:09:18.419Z,24.30
2019-06-10T09:11:47.874Z,26.50
2019-06-10T09:14:14.443Z,29.00
2019-06-10T09:16:44.389Z,29.20
2019-06-10T09:19:12.513Z,24.10
2019-06-10T09:21:39.163Z,29.00
2019-06-10T09:24:07.486Z,23.20
2019-06-10T09:26:34.307Z,24.00
2019-06-10T09:29:02.958Z,25.90
2019-06-10T09:31:33.013Z,26.60
2019-06-10T09:33:59.644Z,26.80
2019-06-10T09:36:26.491Z,25.40
2019-06-10T09:38:55.677Z,27.20
2019-06-10T09:41:36.090Z,26.20
2019-06-10T09:43:56.728Z,24.60
2019-06-10T09:46:23.264Z,25.50
2019-06-10T09:48:55.636Z,27.10
2019-06-10T09:51:19.747Z,28.50
2019-06-10T09:54:01.111Z,25.30
2019-06-10T09:56:15.346Z,24.20
2019-06-10T09:58:46.053Z,23.40
2019-06-10T10:01:13.381Z,23.50
2019-06-10T10:03:41.840Z,24.70
2019-06-10T10:06:15.023Z,24.30
2019-06-10T10:08:37.185Z,24.40
2019-06-10T10:11:04.012Z,26.50
2019-06-10T10:13:34.940Z,24.30
2019-06-10T10:15:59.638Z,28.10
2019-06-10T10:18:26.500Z,25.30
2019-06-10T10:20:58.400Z,27.70
2019-06-10T10:23:22.659Z,26.00
2019-06-10T10:25:51.909Z,21.70
2019-06-10T10:28:18.501Z,23.90
2019-06-10T10:30:48.721Z,23.10
2019-06-10T10:33:14.819Z,24.10
2019-06-10T10:35:43.169Z,29.20
2019-06-10T10:38:14.323Z,28.20
2019-06-10T10:40:43.390Z,26.80
2019-06-10T10:43:23.510Z,22.20
2019-06-10T10:45:37.931Z,26.00
2019-06-10T10:48:04.885Z,24.30
2019-06-10T10:50:34.027Z,22.40
2019-06-10T10:53:00.471Z,25.20
2019-06-10T10:55:27.346Z,24.20
2019-06-10T10:57:55.728Z,23.10
2019-06-10T11:00:24.127Z,21.50
2019-06-10T11:02:52.647Z,26.80
2019-06-10T11:05:36.092Z,24.30
2019-06-10T11:08:05.229Z,26.30
2019-06-10T11:10:32.989Z,26.10
2019-06-10T11:13:02.587Z,26.50
2019-06-10T11:15:29.515Z,30.30
2019-06-10T11:17:56.940Z,27.50
2019-06-10T11:20:25.218Z,24.20
2019-06-10T11:22:52.176Z,25.30
2019-06-10T11:25:18.999Z,24.80
2019-06-10T11:27:46.455Z,28.10
2019-06-10T11:30:13.799Z,30.30
2019-06-10T11:32:43.060Z,26.30
2019-06-10T11:35:12.155Z,27.50
2019-06-10T11:37:39.107Z,27.50
2019-06-10T11:40:06.927Z,28.30
2019-06-10T11:42:33.779Z,29.90
2019-06-10T11:45:02.796Z,25.80
2019-06-10T11:47:29.269Z,24.70
2019-06-10T11:49:56.867Z,25.80
2019-06-10T11:52:24.863Z,29.50
2019-06-10T11:55:05.607Z,32.00
2019-06-10T11:57:22.937Z,33.30
2019-06-10T11:59:50.827Z,30.10
2019-06-10T12:02:18.764Z,32.50
2019-06-10T12:04:46.168Z,33.30
2019-06-10T12:07:13.127Z,27.50
2019-06-10T12:09:42.407Z,28.20
2019-06-10T12:12:08.716Z,29.30
2019-06-10T12:14:35.578Z,28.50
2019-06-10T12:17:35.098Z,28.70
2019-06-10T12:19:33.548Z,31.90
2019-06-10T12:22:04.593Z,31.10
2019-06-10T12:24:28.593Z,31.90
2019-06-10T12:26:58.305Z,31.50
2019-06-10T12:29:24.321Z,30.60
2019-06-10T12:31:54.599Z,29.30
2019-06-10T12:34:19.919Z,27.60
2019-06-10T12:36:46.874Z,29.70
2019-06-10T12:39:17.033Z,29.90
2019-06-10T12:41:43.087Z,27.40
2019-06-10T12:44:12.350Z,28.50
2019-06-10T12:46:39.908Z,29.00
2019-06-10T12:49:08.630Z,29.70
2019-06-10T12:51:35.767Z,29.80
2019-06-10T12:54:06.205Z,29.30
2019-06-10T12:56:32.786Z,28.60
2019-06-10T12:59:05.709Z,29.30
2019-06-10T13:01:33.000Z,29.40
2019-06-10T13:04:05.360Z,28.30
2019-06-10T13:06:32.429Z,29.60
2019-06-10T13:09:02.634Z,29.10
2019-06-10T13:11:33.508Z,28.90
2019-06-10T13:14:02.828Z,27.40
2019-06-10T13:16:43.290Z,33.40
2019-06-10T13:19:12.427Z,29.70
2019-06-10T13:21:39.293Z,26.20
2019-06-10T13:24:06.286Z,28.10
2019-06-10T13:26:36.104Z,32.40
2019-06-10T13:29:06.356Z,31.60
2019-06-10T13:31:33.666Z,30.00
2019-06-10T13:34:05.055Z,35.00
2019-06-10T13:36:33.060Z,32.10
2019-06-10T13:41:35.728Z,36.10
2019-06-10T13:44:04.104Z,33.60
2019-06-10T13:46:33.041Z,31.60
2019-06-10T13:48:59.831Z,36.30
2019-06-10T13:51:26.679Z,36.50
2019-06-10T13:53:53.767Z,36.40
2019-06-10T13:56:39.811Z,36.10
2019-06-10T13:58:49.660Z,28.50
2019-06-10T14:01:21.655Z,34.00
2019-06-10T14:03:45.329Z,33.20
2019-06-10T14:06:28.403Z,34.10
2019-06-10T14:08:43.106Z,33.30
2019-06-10T14:11:09.729Z,32.60
2019-06-10T14:13:36.723Z,35.40
2019-06-10T14:16:03.655Z,32.20
2019-06-10T14:18:32.643Z,30.50
2019-06-10T14:20:59.255Z,33.40
2019-06-10T14:23:26.112Z,33.90
2019-06-10T14:25:53.518Z,33.80
2019-06-10T14:28:38.491Z,35.00
2019-06-10T14:30:49.486Z,35.10
2019-06-10T14:33:16.813Z,32.80
2019-06-10T14:35:44.157Z,35.10
2019-06-10T14:38:14.089Z,35.00
2019-06-10T14:40:42.796Z,35.70
2019-06-10T14:43:10.339Z,35.40
2019-06-10T14:45:37.498Z,35.10
2019-06-10T14:48:04.944Z,37.40
2019-06-10T14:50:32.466Z,38.30
2019-06-10T14:52:59.565Z,36.70
2019-06-10T14:55:26.508Z,37.90
2019-06-10T14:57:53.469Z,39.40
2019-06-10T15:00:20.517Z,41.40
2019-06-10T15:02:47.704Z,40.90
2019-06-10T15:05:17.373Z,41.20
2019-06-10T15:07:43.592Z,41.90
2019-06-10T15:10:15.474Z,39.80
2019-06-10T15:12:39.388Z,40.80
2019-06-10T15:15:08.137Z,42.20
2019-06-10T15:17:35.232Z,42.00
2019-06-10T15:20:04.920Z,40.70
2019-06-10T15:22:32.994Z,40.40
2019-06-10T15:25:03.042Z,40.20
2019-06-10T15:27:31.612Z,38.40
2019-06-10T15:29:57.609Z,39.50
2019-06-10T15:32:33.637Z,40.20
2019-06-10T15:34:53.105Z,42.90
2019-06-10T15:37:34.144Z,42.70
2019-06-10T15:40:06.899Z,43.40
2019-06-10T15:42:33.950Z,45.20
2019-06-10T15:45:02.476Z,44.60
2019-06-10T15:47:30.866Z,43.10
2019-06-10T15:49:57.728Z,43.20
2019-06-10T15:52:25.239Z,43.00
2019-06-10T15:54:52.597Z,42.50
2019-06-10T15:57:34.618Z,44.00
2019-06-10T15:59:48.120Z,45.80
2019-06-10T16:02:18.227Z,46.90
2019-06-10T16:04:43.884Z,44.90
2019-06-10T16:07:13.102Z,43.20
2019-06-10T16:09:39.583Z,42.20
2019-06-10T16:12:06.428Z,43.70
2019-06-10T16:14:34.303Z,46.50
2019-06-10T16:17:03.154Z,47.50
2019-06-10T16:19:32.874Z,46.00
2019-06-10T16:21:59.790Z,47.30
2019-06-10T16:24:27.540Z,48.40
2019-06-10T16:26:56.004Z,47.50
2019-06-10T16:29:24.207Z,46.90
2019-06-10T16:31:52.902Z,45.70
2019-06-10T16:34:21.925Z,47.50
2019-06-10T16:36:48.940Z,46.10
2019-06-10T16:39:16.956Z,48.30
2019-06-10T16:41:43.935Z,48.30
2019-06-10T16:44:13.750Z,49.40
2019-06-10T16:46:43.159Z,49.80
2019-06-10T16:49:12.550Z,48.60
2019-06-10T16:51:43.060Z,48.20
2019-06-10T16:54:12.852Z,48.80
2019-06-10T16:56:40.412Z,50.10
2019-06-10T16:59:07.262Z,48.80
2019-06-10T17:01:34.255Z,49.30
2019-06-10T17:04:01.103Z,48.40
2019-06-10T17:06:27.979Z,48.80
2019-06-10T17:08:54.991Z,49.80
2019-06-10T17:11:24.105Z,50.90
2019-06-10T17:13:52.663Z,51.30
2019-06-10T17:16:20.882Z,51.10
2019-06-10T17:18:48.374Z,52.00
2019-06-10T17:21:16.064Z,51.80
2019-06-10T17:23:43.304Z,51.90
2019-06-10T17:26:10.467Z,52.20
2019-06-10T17:28:37.340Z,54.60
2019-06-10T17:31:06.158Z,61.10
2019-06-10T17:33:35.863Z,64.30
2019-06-10T17:36:03.338Z,67.50
2019-06-10T17:38:31.270Z,64.90
2019-06-10T17:40:58.409Z,60.60
2019-06-10T17:43:25.303Z,62.60
2019-06-10T17:45:54.323Z,65.70
2019-06-10T17:48:23.725Z,62.60
2019-06-10T17:50:52.278Z,64.40
2019-06-10T17:53:18.782Z,64.20
2019-06-10T17:55:46.636Z,64.50
2019-06-10T17:58:13.495Z,66.50
2019-06-10T18:00:42.240Z,65.70
2019-06-10T18:03:09.444Z,65.10
2019-06-10T18:05:36.388Z,65.20
2019-06-10T18:08:03.347Z,65.80
2019-06-10T18:10:33.105Z,67.00
2019-06-10T18:13:12.741Z,67.10
2019-06-10T18:15:35.365Z,67.10
2019-06-10T18:18:03.495Z,66.40
2019-06-10T18:20:31.403Z,66.90
2019-06-10T18:23:05.532Z,66.80
2019-06-10T18:25:33.928Z,65.70
2019-06-10T18:28:02.815Z,64.00
2019-06-10T18:30:32.608Z,64.50
2019-06-10T18:32:58.561Z,63.80
2019-06-10T18:35:25.854Z,64.00
2019-06-10T18:37:53.098Z,64.90
2019-06-10T18:40:20.061Z,66.40
2019-06-10T18:42:46.883Z,65.70
2019-06-10T18:45:14.042Z,65.50
2019-06-10T18:47:42.266Z,65.60
2019-06-10T18:50:12.632Z,67.20
2019-06-10T18:52:39.225Z,67.00
2019-06-10T18:55:08.416Z,67.20
2019-06-10T18:57:36.554Z,68.10
2019-06-10T19:00:46.049Z,67.50
2019-06-10T19:03:10.414Z,69.40
2019-06-10T19:05:26.878Z,67.00
2019-06-10T19:07:53.819Z,66.50
2019-06-10T19:10:23.094Z,66.40
2019-06-10T19:12:52.998Z,66.30
2019-06-10T19:15:19.187Z,66.10
2019-06-10T19:17:46.237Z,64.30
2019-06-10T19:20:13.987Z,65.40
2019-06-10T19:22:43.081Z,65.10
2019-06-10T19:25:09.814Z,65.70
2019-06-10T19:27:38.091Z,66.80
2019-06-10T19:30:06.843Z,66.80
2019-06-10T19:32:35.547Z,68.00
2019-06-10T19:35:06.964Z,68.30
2019-06-10T19:37:36.135Z,68.80
2019-06-10T19:40:06.299Z,68.60
2019-06-10T19:42:35.374Z,68.30
2019-06-10T19:45:07.343Z,68.20
2019-06-10T19:47:36.279Z,69.30
2019-06-10T19:50:06.231Z,68.00
2019-06-10T19:52:56.420Z,69.10
2019-06-10T19:55:23.468Z,68.10
2019-06-10T19:57:50.807Z,67.40
2019-06-10T20:00:18.311Z,67.80
2019-06-10T20:02:47.034Z,68.40
2019-06-10T20:05:15.235Z,68.00
2019-06-10T20:07:47.857Z,68.40
2019-06-10T20:10:17.110Z,68.10
2019-06-10T20:12:53.431Z,68.10
2019-06-10T20:15:25.887Z,67.40
2019-06-10T20:17:54.739Z,67.10
2019-06-10T20:20:23.779Z,64.40
2019-06-10T20:22:53.424Z,60.00
2019-06-10T20:25:22.358Z,64.90
2019-06-10T20:27:49.269Z,64.70
2019-06-10T20:30:25.135Z,63.20
2019-06-10T20:32:50.261Z,62.10
2019-06-10T20:35:16.101Z,60.00
2019-06-10T20:37:47.260Z,57.50
2019-06-10T20:40:14.026Z,60.90
2019-06-10T20:42:42.284Z,56.90
2019-06-10T20:45:09.852Z,56.70
2019-06-10T20:47:37.612Z,54.40
2019-06-10T20:50:06.295Z,54.80
2019-06-10T20:52:34.691Z,55.50
2019-06-10T20:55:04.333Z,54.60
2019-06-10T20:57:33.090Z,56.50
2019-06-10T21:00:01.102Z,57.50
2019-06-10T21:02:28.444Z,60.20
2019-06-10T21:04:56.088Z,56.90
2019-06-10T21:07:24.446Z,59.10
2019-06-10T21:09:53.424Z,58.30
2019-06-10T21:12:22.235Z,57.90
2019-06-10T21:14:50.244Z,58.40
2019-06-10T21:17:17.388Z,60.80
2019-06-10T21:19:46.064Z,62.20
2019-06-10T21:22:15.219Z,62.40
2019-06-10T21:24:42.550Z,62.60
2019-06-10T21:27:09.735Z,63.10
2019-06-10T21:29:38.723Z,62.30
2019-06-10T21:32:06.565Z,63.00
2019-06-10T21:34:33.603Z,63.80
2019-06-10T21:37:03.015Z,63.50
2019-06-10T21:39:32.229Z,62.10
2019-06-10T21:42:02.078Z,62.40
2019-06-10T21:44:32.056Z,62.60
2019-06-10T21:46:59.247Z,62.40
2019-06-10T21:49:26.368Z,64.70
2019-06-10T21:51:57.003Z,64.70
2019-06-10T21:54:24.070Z,64.90
2019-06-10T21:56:54.017Z,65.20
2019-06-10T21:59:20.186Z,65.50
2019-06-10T22:01:51.326Z,65.10
2019-06-10T22:04:18.268Z,64.70
2019-06-10T22:06:47.451Z,62.20
2019-06-10T22:09:14.790Z,66.10
2019-06-10T22:11:46.518Z,65.80
2019-06-10T22:14:22.345Z,67.30
2019-06-10T22:23:33.083Z,66.30
2019-06-10T22:26:02.588Z,64.20
2019-06-10T22:28:29.002Z,61.10
2019-06-10T22:31:14.600Z,60.90
2019-06-10T22:33:24.579Z,61.00
2019-06-10T22:35:54.363Z,61.80
2019-06-10T22:38:22.151Z,63.90
2019-06-10T22:40:48.915Z,64.70
2019-06-10T22:43:15.903Z,65.50
2019-06-10T22:45:42.739Z,63.70
2019-06-10T22:48:12.092Z,62.40
2019-06-10T22:50:40.529Z,60.60
2019-06-10T22:53:07.367Z,62.70
2019-06-10T22:55:34.311Z,60.90
2019-06-10T22:58:05.293Z,59.40
2019-06-10T23:00:30.471Z,60.90
2019-06-10T23:02:58.013Z,59.70
2019-06-10T23:05:26.848Z,60.10
2019-06-10T23:07:55.709Z,59.70
2019-06-10T23:10:22.941Z,59.70
2019-06-10T23:12:51.288Z,58.50
2019-06-10T23:21:42.440Z,60.70
2019-06-10T23:24:09.489Z,59.00
2019-06-10T23:26:36.434Z,59.10
2019-06-10T23:29:03.495Z,59.20
2019-06-10T23:31:33.695Z,58.50
2019-06-10T23:33:59.464Z,58.50
2019-06-10T23:36:26.363Z,60.00
2019-06-10T23:38:54.764Z,59.50
2019-06-10T23:41:22.402Z,59.50
2019-06-10T23:43:51.046Z,59.50
2019-06-10T23:46:18.008Z,59.50
2019-06-10T23:48:59.590Z,58.40
2019-06-10T23:51:26.616Z,59.70
2019-06-10T23:53:56.705Z,59.00
2019-06-10T23:56:22.257Z,59.40
2019-06-10T23:58:49.119Z,60.10
